Time;durP1;ratioP1;P1;durP2;ratioP2;P2;SDS_P1;SDS_P2;PMS_P1;PMS_P2;Temp;Humidity;BMP_temperature;BMP_pressure;BME280_temperature;BME280_humidity;BME280_pressure;Samples;Min_cycle;Max_cycle;Signal;HPM_P1;HPM_P2
2022/06/19 00:02:19;;;;;;;9.38;1.77;;;9.20;99.90;;;;;;5091115;28;20407;-55
2022/06/19 00:04:50;;;;;;;16.52;3.05;;;9.20;99.90;;;;;;5089242;28;20059;-57
2022/06/19 00:07:18;;;;;;;12.80;2.45;;;9.20;99.90;;;;;;5093997;28;20419;-56
2022/06/19 00:09:47;;;;;;;8.30;2.03;;;9.20;99.90;;;;;;5093558;28;20044;-57
2022/06/19 00:12:16;;;;;;;7.85;2.05;;;9.10;99.90;;;;;;5092323;28;20058;-55
2022/06/19 00:14:45;;;;;;;16.90;2.53;;;9.10;99.90;;;;;;5106276;28;20054;-54
2022/06/19 00:17:14;;;;;;;13.02;2.70;;;9.10;99.90;;;;;;5112538;28;20036;-54
2022/06/19 00:19:43;;;;;;;8.10;2.05;;;9.10;99.90;;;;;;5096302;28;20044;-55
2022/06/19 00:22:11;;;;;;;9.63;2.38;;;9.10;99.90;;;;;;5093962;28;20032;-55
2022/06/19 00:24:38;;;;;;;10.18;2.35;;;9.00;99.90;;;;;;5093484;28;20044;-58
2022/06/19 00:27:06;;;;;;;6.97;2.33;;;9.00;99.90;;;;;;5093314;28;20044;-57
2022/06/19 00:29:34;;;;;;;9.20;2.78;;;9.00;99.90;;;;;;5106374;28;20506;-57
2022/06/19 00:32:07;;;;;;;10.25;2.20;;;8.90;99.90;;;;;;5113931;28;20044;-57
2022/06/19 00:34:38;;;;;;;11.02;2.60;;;8.90;99.90;;;;;;5112781;28;20426;-57
2022/06/19 00:37:06;;;;;;;6.45;2.10;;;8.80;99.90;;;;;;5098841;28;20197;-57
2022/06/19 00:39:39;;;;;;;10.30;2.25;;;8.80;99.90;;;;;;5091875;28;20052;-59
2022/06/19 00:42:11;;;;;;;12.48;1.80;;;8.70;99.90;;;;;;5093367;28;20071;-56
2022/06/19 00:44:39;;;;;;;13.82;2.50;;;8.70;99.90;;;;;;5107889;28;20062;-58
2022/06/19 00:47:22;;;;;;;9.80;2.22;;;8.70;99.90;;;;;;5113376;28;20046;-58
2022/06/19 00:49:52;;;;;;;14.25;2.53;;;8.70;99.90;;;;;;5094839;28;20052;-58
2022/06/19 00:52:32;;;;;;;15.93;2.75;;;8.60;99.90;;;;;;5093503;28;20391;-58
2022/06/19 00:55:08;;;;;;;10.02;2.40;;;8.60;99.90;;;;;;5111312;28;20047;-58
2022/06/19 00:57:44;;;;;;;6.20;1.75;;;8.60;99.90;;;;;;5113591;28;20051;-60
2022/06/19 01:00:26;;;;;;;7.00;2.45;;;8.60;99.90;;;;;;5111116;28;20078;-57
2022/06/19 01:03:00;;;;;;;10.65;2.95;;;8.50;99.90;;;;;;5109969;28;20066;-58
2022/06/19 01:05:29;;;;;;;10.15;2.03;;;8.50;99.90;;;;;;5109421;28;21926;-57
2022/06/19 01:08:00;;;;;;;13.55;2.30;;;8.50;99.90;;;;;;5091866;28;20043;-60
2022/06/19 01:10:28;;;;;;;11.32;2.10;;;8.40;99.90;;;;;;5092476;28;20503;-56
2022/06/19 01:12:57;;;;;;;8.90;2.30;;;8.40;99.90;;;;;;5094330;28;20051;-56
2022/06/19 01:15:26;;;;;;;10.00;2.42;;;8.40;99.90;;;;;;5111792;28;20046;-57
2022/06/19 01:17:59;;;;;;;5.43;1.70;;;8.30;99.90;;;;;;5109810;28;20043;-56
2022/06/19 01:20:29;;;;;;;9.57;2.30;;;8.30;99.90;;;;;;5092409;28;20059;-57
2022/06/19 01:23:15;;;;;;;11.77;2.30;;;8.30;99.90;;;;;;5092749;28;20495;-57
2022/06/19 01:25:44;;;;;;;7.13;2.25;;;8.30;99.90;;;;;;5091796;28;20052;-57
2022/06/19 01:31:06;;;;;;;11.98;3.55;;;8.20;99.90;;;;;;5095166;28;20040;-56
2022/06/19 01:33:49;;;;;;;11.60;2.90;;;8.20;99.90;;;;;;5112749;28;20055;-57
2022/06/19 01:36:21;;;;;;;11.43;3.35;;;8.20;99.90;;;;;;5109166;28;20304;-57
2022/06/19 01:38:52;;;;;;;16.45;2.70;;;8.20;99.90;;;;;;5093515;28;20064;-57
2022/06/19 01:41:31;;;;;;;11.40;2.58;;;8.20;99.90;;;;;;5112518;28;20036;-56
2022/06/19 01:43:59;;;;;;;12.93;2.85;;;8.20;99.90;;;;;;5114055;28;20051;-57
2022/06/19 01:46:29;;;;;;;8.88;1.90;;;8.20;99.90;;;;;;5112888;28;20051;-57
2022/06/19 01:48:57;;;;;;;11.95;2.97;;;8.20;99.90;;;;;;5113420;28;20052;-57
2022/06/19 01:51:25;;;;;;;15.10;2.42;;;8.20;99.90;;;;;;5111867;28;20044;-57
2022/06/19 01:53:59;;;;;;;8.60;2.10;;;8.20;99.90;;;;;;5113321;28;20047;-57
2022/06/19 01:56:28;;;;;;;13.90;2.60;;;8.20;99.90;;;;;;5111831;28;20039;-56
2022/06/19 01:59:03;;;;;;;5.83;2.10;;;8.20;99.90;;;;;;5113282;28;20048;-57
2022/06/19 02:01:35;;;;;;;11.00;2.15;;;8.20;99.90;;;;;;5112582;28;20307;-56
2022/06/19 02:04:05;;;;;;;8.65;2.25;;;8.10;99.90;;;;;;5112584;28;20053;-56
2022/06/19 02:06:43;;;;;;;5.60;2.30;;;8.10;99.90;;;;;;5113444;28;20489;-58
2022/06/19 02:09:15;;;;;;;7.57;2.22;;;8.10;99.90;;;;;;5113564;28;20061;-55
2022/06/19 02:11:43;;;;;;;12.13;2.38;;;8.00;99.90;;;;;;5113070;28;20052;-56
2022/06/19 02:14:13;;;;;;;10.38;1.80;;;8.10;99.90;;;;;;5113367;28;20506;-57
2022/06/19 02:16:43;;;;;;;10.82;2.53;;;8.10;99.90;;;;;;5109568;28;20051;-55
2022/06/19 02:19:11;;;;;;;8.15;1.70;;;8.00;99.90;;;;;;5113373;28;20047;-56
2022/06/19 02:21:49;;;;;;;6.70;2.25;;;8.00;99.90;;;;;;5111166;28;20415;-56
2022/06/19 02:24:19;;;;;;;7.18;2.33;;;8.00;99.90;;;;;;5092823;28;20067;-59
2022/06/19 02:26:49;;;;;;;8.95;2.38;;;8.00;99.90;;;;;;5104675;28;20043;-55
2022/06/19 02:29:19;;;;;;;7.90;2.05;;;8.00;99.90;;;;;;5111350;28;20407;-57
2022/06/19 02:31:52;;;;;;;5.20;2.00;;;8.00;99.90;;;;;;5113200;28;20502;-56
2022/06/19 02:34:28;;;;;;;7.80;2.13;;;8.00;99.90;;;;;;5110277;28;20058;-56
2022/06/19 02:36:58;;;;;;;12.15;2.33;;;8.00;99.90;;;;;;5113037;28;20047;-56
2022/06/19 02:39:29;;;;;;;;;;;8.00;99.90;;;;;;5112226;28;20065;-56
2022/06/19 02:42:41;;;;;;;9.80;2.22;;;8.00;99.90;;;;;;5110999;28;19920;-58
2022/06/19 02:45:18;;;;;;;9.45;3.03;;;8.00;99.90;;;;;;5093648;28;20055;-57
2022/06/19 02:47:46;;;;;;;8.50;2.45;;;8.00;99.90;;;;;;5111806;28;20566;-56
2022/06/19 02:50:18;;;;;;;9.88;2.40;;;8.00;99.90;;;;;;5112743;28;20052;-56
2022/06/19 02:52:47;;;;;;;13.05;2.90;;;8.00;99.90;;;;;;5111725;28;20482;-56
2022/06/19 02:55:16;;;;;;;8.02;2.20;;;8.00;99.90;;;;;;5112131;28;20043;-57
2022/06/19 02:57:43;;;;;;;8.93;1.92;;;8.00;99.90;;;;;;5112659;28;20044;-57
2022/06/19 03:00:22;;;;;;;12.55;2.40;;;7.90;99.90;;;;;;5111028;28;20058;-56
2022/06/19 03:02:52;;;;;;;8.63;2.10;;;7.90;99.90;;;;;;5112182;28;20043;-57
2022/06/19 03:05:24;;;;;;;15.35;2.17;;;7.90;99.90;;;;;;5112588;28;20052;-56
2022/06/19 03:07:51;;;;;;;12.93;2.53;;;7.90;99.90;;;;;;5110730;28;20402;-56
2022/06/19 03:10:19;;;;;;;8.65;2.03;;;7.90;99.90;;;;;;5112334;28;20040;-56
2022/06/19 03:12:47;;;;;;;7.40;1.83;;;7.80;99.90;;;;;;5110993;28;20052;-56
2022/06/19 03:15:15;;;;;;;5.22;2.22;;;7.80;99.90;;;;;;5112448;28;20048;-56
2022/06/19 03:17:43;;;;;;;9.02;2.50;;;7.80;99.90;;;;;;5111117;28;20035;-57
2022/06/19 03:20:17;;;;;;;8.18;2.28;;;7.80;99.90;;;;;;5110597;28;20039;-56
2022/06/19 03:22:45;;;;;;;8.27;2.13;;;7.70;99.90;;;;;;5112222;28;20054;-55
2022/06/19 03:25:13;;;;;;;10.20;2.13;;;7.70;99.90;;;;;;5110895;28;20395;-55
2022/06/19 03:27:40;;;;;;;6.97;2.28;;;7.80;99.90;;;;;;5111952;28;20070;-56
2022/06/19 03:30:10;;;;;;;12.55;2.90;;;7.70;99.90;;;;;;5109362;28;20055;-56
2022/06/19 03:32:38;;;;;;;;;;;7.70;99.90;;;;;;5112508;28;20050;-56
2022/06/19 03:35:07;;;;;;;13.57;2.25;;;7.70;99.90;;;;;;5111126;28;19920;-56
2022/06/19 03:37:35;;;;;;;6.40;1.85;;;7.70;99.90;;;;;;5109944;28;20048;-57
2022/06/19 03:40:03;;;;;;;7.07;2.13;;;7.70;99.90;;;;;;5109966;28;20054;-56
2022/06/19 03:42:31;;;;;;;9.80;2.08;;;7.70;99.90;;;;;;5110657;28;20046;-55
2022/06/19 03:44:58;;;;;;;10.50;3.38;;;7.70;99.90;;;;;;5112024;28;20051;-56
2022/06/19 03:47:26;;;;;;;10.05;2.45;;;7.70;99.90;;;;;;5111616;28;20055;-56
2022/06/19 03:49:54;;;;;;;6.53;2.17;;;7.70;99.90;;;;;;5111819;28;20052;-56
2022/06/19 03:52:22;;;;;;;13.93;2.10;;;7.70;99.90;;;;;;5110765;28;20047;-56
2022/06/19 03:54:50;;;;;;;10.93;2.33;;;7.70;99.90;;;;;;5110671;28;20055;-56
2022/06/19 03:57:17;;;;;;;10.18;2.55;;;7.80;99.90;;;;;;5109498;28;20040;-56
2022/06/19 03:59:46;;;;;;;13.18;3.05;;;7.80;99.90;;;;;;5091422;28;20044;-56
2022/06/19 04:02:13;;;;;;;10.70;2.33;;;7.70;99.90;;;;;;5108325;28;20055;-56
2022/06/19 04:04:42;;;;;;;10.27;2.60;;;7.70;99.90;;;;;;5111685;28;20071;-56
2022/06/19 04:07:11;;;;;;;13.85;2.50;;;7.70;99.90;;;;;;5111649;28;20044;-56
2022/06/19 04:09:39;;;;;;;13.93;2.60;;;7.70;99.90;;;;;;5111893;28;20051;-57
2022/06/19 04:12:07;;;;;;;8.48;1.92;;;7.80;99.90;;;;;;5111724;28;20043;-55
2022/06/19 04:14:34;;;;;;;9.82;2.33;;;7.80;99.90;;;;;;5109699;28;20411;-56
2022/06/19 04:17:03;;;;;;;8.63;2.70;;;7.80;99.90;;;;;;5109693;28;20046;-57
2022/06/19 04:19:31;;;;;;;15.90;2.10;;;7.90;99.90;;;;;;5110521;28;20054;-56
2022/06/19 04:21:58;;;;;;;10.45;2.03;;;7.90;99.90;;;;;;5111768;28;20054;-56
2022/06/19 04:24:26;;;;;;;7.10;2.50;;;8.00;99.90;;;;;;5111670;28;20036;-56
2022/06/19 04:26:54;;;;;;;9.73;2.10;;;8.00;99.90;;;;;;5111544;28;20047;-57
2022/06/19 04:29:21;;;;;;;8.32;2.10;;;8.10;99.90;;;;;;5111375;28;20423;-56
2022/06/19 04:31:49;;;;;;;10.73;2.10;;;8.10;99.90;;;;;;5111176;28;20055;-55
2022/06/19 04:34:17;;;;;;;10.43;2.38;;;8.20;99.90;;;;;;5111443;28;20035;-57
2022/06/19 04:36:44;;;;;;;16.10;2.83;;;8.20;99.90;;;;;;5109845;28;20044;-56
2022/06/19 04:39:12;;;;;;;11.50;2.10;;;8.40;99.90;;;;;;5110150;28;20047;-56
2022/06/19 04:41:43;;;;;;;20.50;2.75;;;8.40;99.90;;;;;;5112271;28;20043;-56
2022/06/19 04:44:14;;;;;;;14.13;2.83;;;8.50;99.90;;;;;;5115095;28;20039;-57
2022/06/19 04:46:43;;;;;;;9.50;2.22;;;8.60;99.90;;;;;;5095275;28;20048;-56
2022/06/19 04:49:14;;;;;;;12.40;2.55;;;8.70;99.90;;;;;;5090816;28;20039;-56
2022/06/19 04:51:42;;;;;;;;;;;8.90;99.90;;;;;;5091963;28;20052;-57
2022/06/19 04:54:11;;;;;;;13.27;2.33;;;8.90;99.90;;;;;;5091399;28;19931;-57
2022/06/19 04:56:39;;;;;;;9.52;2.08;;;9.10;99.90;;;;;;5091256;28;20075;-56
2022/06/19 04:59:07;;;;;;;4.35;1.65;;;9.10;99.90;;;;;;5094664;28;20047;-56
2022/06/19 05:01:38;;;;;;;7.72;1.92;;;9.20;99.90;;;;;;5107952;28;20573;-56
2022/06/19 05:04:09;;;;;;;8.48;1.83;;;9.30;99.90;;;;;;5090047;28;20040;-56
2022/06/19 05:06:38;;;;;;;11.60;2.28;;;9.30;99.90;;;;;;5107460;28;20109;-55
2022/06/19 05:09:06;;;;;;;8.02;1.45;;;9.40;99.90;;;;;;5100649;28;20074;-55
2022/06/19 05:11:33;;;;;;;11.93;1.75;;;9.40;99.90;;;;;;5110391;28;20052;-55
2022/06/19 05:14:02;;;;;;;11.35;2.20;;;9.50;99.90;;;;;;5111360;28;20055;-56
2022/06/19 05:16:30;;;;;;;9.25;1.50;;;9.50;99.90;;;;;;5113093;28;20043;-55
2022/06/19 05:19:00;;;;;;;11.23;1.83;;;9.50;99.90;;;;;;5097010;28;20067;-56
2022/06/19 05:21:28;;;;;;;13.80;2.67;;;9.50;99.90;;;;;;5099603;28;20040;-56
2022/06/19 05:23:56;;;;;;;8.85;2.10;;;9.50;99.90;;;;;;5109649;28;20047;-56
2022/06/19 05:26:29;;;;;;;9.57;1.65;;;9.50;99.90;;;;;;5110891;28;20055;-56
2022/06/19 05:28:58;;;;;;;10.15;1.98;;;9.50;99.90;;;;;;5095235;28;20491;-56
2022/06/19 05:31:26;;;;;;;14.20;1.90;;;9.60;99.90;;;;;;5091027;28;20074;-56
2022/06/19 05:33:55;;;;;;;14.75;2.22;;;9.60;99.90;;;;;;5092357;28;20055;-56
2022/06/19 05:36:26;;;;;;;8.85;1.50;;;9.60;99.90;;;;;;5112716;28;20051;-56
2022/06/19 05:38:54;;;;;;;10.75;2.00;;;9.70;99.90;;;;;;5096828;28;20052;-56
2022/06/19 05:41:23;;;;;;;8.98;2.28;;;9.90;99.90;;;;;;5093597;28;20058;-57
2022/06/19 05:43:51;;;;;;;10.98;1.85;;;10.00;99.90;;;;;;5108105;28;20050;-56
2022/06/19 05:46:20;;;;;;;7.90;1.77;;;10.10;99.90;;;;;;5108954;28;20040;-56
2022/06/19 05:48:50;;;;;;;9.70;1.50;;;10.20;99.90;;;;;;5095195;28;20043;-55
2022/06/19 05:51:20;;;;;;;12.68;2.45;;;10.30;99.90;;;;;;5091010;28;20059;-57
2022/06/19 05:53:53;;;;;;;11.70;2.63;;;10.40;99.90;;;;;;5110043;28;20035;-56
2022/06/19 05:56:21;;;;;;;12.32;1.70;;;10.50;99.90;;;;;;5110755;28;20048;-56
2022/06/19 05:58:49;;;;;;;16.17;1.83;;;10.60;99.90;;;;;;5097235;28;20048;-54
2022/06/19 06:01:18;;;;;;;8.73;2.40;;;10.70;99.90;;;;;;5104797;28;20051;-56
2022/06/19 06:03:45;;;;;;;8.52;1.83;;;10.70;99.90;;;;;;5101737;28;20040;-56
2022/06/19 06:06:19;;;;;;;10.65;1.13;;;10.80;99.90;;;;;;5088460;28;20066;-55
2022/06/19 06:08:47;;;;;;;8.77;1.25;;;10.80;99.90;;;;;;5087906;28;20036;-56
2022/06/19 06:11:15;;;;;;;11.45;1.83;;;10.80;99.90;;;;;;5103005;28;20051;-56
2022/06/19 06:13:43;;;;;;;4.93;1.38;;;10.90;99.90;;;;;;5106398;28;20043;-56
2022/06/19 06:16:16;;;;;;;10.82;2.38;;;10.90;99.90;;;;;;5108757;28;20043;-56
2022/06/19 06:18:44;;;;;;;17.10;1.90;;;10.90;99.90;;;;;;5098030;28;20044;-56
2022/06/19 06:21:17;;;;;;;8.38;1.83;;;10.90;99.90;;;;;;5105321;28;20505;-56
2022/06/19 06:23:45;;;;;;;9.57;1.73;;;10.90;99.90;;;;;;5109817;28;20051;-56
2022/06/19 06:26:19;;;;;;;12.35;2.55;;;11.00;99.90;;;;;;5103154;28;20055;-56
2022/06/19 06:28:49;;;;;;;10.00;1.40;;;11.00;99.90;;;;;;5096998;28;20507;-55
2022/06/19 06:31:17;;;;;;;7.45;1.58;;;11.20;99.90;;;;;;5089637;28;20055;-55
2022/06/19 06:33:46;;;;;;;16.45;2.10;;;11.30;99.90;;;;;;5096833;28;20043;-56
2022/06/19 06:36:15;;;;;;;14.05;1.55;;;11.40;99.90;;;;;;5102441;28;20043;-56
2022/06/19 06:38:43;;;;;;;10.23;2.60;;;11.60;99.90;;;;;;5100781;28;20596;-56
2022/06/19 06:41:12;;;;;;;14.80;1.85;;;11.70;99.90;;;;;;5090426;28;20048;-55
2022/06/19 06:43:42;;;;;;;9.40;1.50;;;11.80;99.90;;;;;;5108950;28;20044;-55
2022/06/19 06:46:21;;;;;;;8.80;1.02;;;11.90;99.90;;;;;;5107859;28;20055;-55
2022/06/19 06:48:52;;;;;;;8.07;1.48;;;12.00;99.90;;;;;;5099301;28;20044;-56
2022/06/19 06:51:26;;;;;;;13.13;1.65;;;12.10;99.90;;;;;;5109108;28;20043;-56
2022/06/19 06:53:54;;;;;;;8.27;1.48;;;12.20;99.90;;;;;;5109035;28;20070;-56
2022/06/19 06:56:22;;;;;;;10.00;1.40;;;12.20;99.90;;;;;;5110113;28;20066;-56
2022/06/19 06:58:49;;;;;;;19.40;2.28;;;12.30;99.90;;;;;;5096441;28;20552;-55
2022/06/19 07:01:20;;;;;;;6.70;1.40;;;12.30;99.90;;;;;;5108516;28;20048;-55
2022/06/19 07:03:54;;;;;;;5.60;1.88;;;12.30;99.90;;;;;;5102151;28;20040;-56
2022/06/19 07:06:25;;;;;;;12.48;1.70;;;12.20;99.90;;;;;;5087358;28;20052;-55
2022/06/19 07:08:53;;;;;;;6.18;1.42;;;12.20;99.90;;;;;;5103780;28;20387;-56
2022/06/19 07:11:24;;;;;;;7.35;1.75;;;12.20;99.90;;;;;;5100809;28;20052;-56
2022/06/19 07:13:52;;;;;;;6.57;1.38;;;12.30;99.90;;;;;;5096845;28;20394;-56
2022/06/19 07:16:20;;;;;;;10.00;1.35;;;12.30;99.90;;;;;;5109479;28;20055;-56
2022/06/19 07:18:47;;;;;;;7.70;2.13;;;12.30;99.90;;;;;;5106985;28;20044;-56
2022/06/19 07:21:15;;;;;;;8.10;1.20;;;12.40;99.90;;;;;;5108386;28;20559;-56
2022/06/19 07:23:43;;;;;;;3.60;1.35;;;12.50;99.90;;;;;;5109388;28;20056;-55
2022/06/19 07:26:12;;;;;;;11.52;2.50;;;12.60;99.90;;;;;;5110539;28;20044;-55
2022/06/19 07:28:41;;;;;;;8.25;1.65;;;12.80;99.90;;;;;;5108528;28;20047;-56
2022/06/19 07:31:10;;;;;;;7.97;1.58;;;12.90;99.90;;;;;;5107727;28;20050;-57
2022/06/19 07:33:39;;;;;;;8.73;1.48;;;13.00;99.90;;;;;;5104176;28;20039;-57
2022/06/19 07:36:11;;;;;;;10.50;1.50;;;13.10;99.90;;;;;;5099109;28;20054;-57
2022/06/19 07:38:39;;;;;;;11.90;2.03;;;13.20;99.90;;;;;;5094292;28;20059;-56
2022/06/19 07:41:07;;;;;;;10.38;1.65;;;13.30;99.90;;;;;;5093865;28;20039;-56
2022/06/19 07:43:35;;;;;;;9.18;1.40;;;13.40;99.90;;;;;;5108663;28;20490;-57
2022/06/19 07:46:02;;;;;;;11.18;2.05;;;13.40;99.90;;;;;;5095058;28;20043;-59
2022/06/19 07:51:19;;;;;;;6.20;1.67;;;13.50;99.90;;;;;;5085957;28;20044;-58
2022/06/19 07:53:46;;;;;;;5.90;1.40;;;13.60;99.90;;;;;;5108256;28;20410;-58
2022/06/19 07:56:14;;;;;;;7.03;2.55;;;13.60;99.90;;;;;;5108866;28;20483;-59
2022/06/19 07:58:41;;;;;;;7.55;1.70;;;13.60;99.90;;;;;;5096691;28;20044;-57
2022/06/19 08:01:09;;;;;;;9.98;1.67;;;13.60;99.90;;;;;;5103978;28;20050;-58
2022/06/19 08:03:37;;;;;;;6.57;1.17;;;13.70;99.90;;;;;;5110002;28;20055;-58
2022/06/19 08:06:05;;;;;;;14.48;2.03;;;13.70;99.90;;;;;;5102641;28;20052;-59
2022/06/19 08:08:33;;;;;;;5.78;1.67;;;13.60;99.90;;;;;;5097195;28;20050;-59
2022/06/19 08:11:01;;;;;;;9.95;1.70;;;13.60;99.90;;;;;;5109692;28;20054;-59
2022/06/19 08:13:31;;;;;;;6.75;2.38;;;13.50;99.90;;;;;;5110024;28;20368;-58
2022/06/19 08:16:10;;;;;;;8.00;2.35;;;13.40;99.90;;;;;;5112458;28;20054;-56
2022/06/19 08:18:38;;;;;;;6.35;2.05;;;13.30;99.90;;;;;;5100209;28;20055;-56
2022/06/19 08:21:06;;;;;;;6.43;2.00;;;13.20;99.90;;;;;;5104194;28;20063;-56
2022/06/19 08:23:34;;;;;;;13.50;3.33;;;13.10;99.90;;;;;;5102760;28;20046;-56
2022/06/19 08:26:02;;;;;;;9.15;2.08;;;13.10;99.90;;;;;;5113712;28;20051;-59
2022/06/19 08:28:36;;;;;;;5.65;1.92;;;13.00;99.90;;;;;;5101931;28;20051;-59
2022/06/19 08:31:05;;;;;;;6.40;1.63;;;13.00;99.90;;;;;;5093358;28;20047;-58
2022/06/19 08:33:33;;;;;;;10.73;1.95;;;12.90;99.90;;;;;;5107737;28;20055;-57
2022/06/19 08:36:06;;;;;;;12.20;2.17;;;13.00;99.90;;;;;;5106682;28;20032;-59
2022/06/19 08:38:40;;;;;;;9.70;2.78;;;13.10;99.90;;;;;;5100778;28;20044;-59
2022/06/19 08:41:07;;;;;;;10.85;1.42;;;13.30;99.90;;;;;;5092122;28;20052;-59
2022/06/19 08:44:07;;;;;;;8.18;1.70;;;13.50;99.90;;;;;;5093230;28;20052;-58
2022/06/19 08:46:43;;;;;;;;;;;13.70;99.90;;;;;;5092331;28;20048;-59
2022/06/19 08:49:17;;;;;;;8.02;1.40;;;13.80;99.90;;;;;;5098886;28;19927;-56
2022/06/19 08:51:47;;;;;;;8.80;1.60;;;14.00;99.90;;;;;;5103238;28;20051;-59
2022/06/19 08:54:21;;;;;;;4.55;1.25;;;14.10;99.90;;;;;;5091806;28;20044;-59
2022/06/19 08:57:04;;;;;;;3.60;1.08;;;14.20;99.90;;;;;;5110106;28;20491;-59
2022/06/19 08:59:41;;;;;;;7.03;1.40;;;14.30;99.90;;;;;;5092729;28;20047;-59
2022/06/19 09:02:19;;;;;;;8.13;1.20;;;14.40;99.90;;;;;;5092622;28;20517;-61
2022/06/19 09:08:19;;;;;;;4.20;0.75;;;14.50;99.90;;;;;;5093023;28;20044;-59
2022/06/19 09:11:00;;;;;;;14.35;2.42;;;14.40;99.90;;;;;;5110024;28;20048;-58
2022/06/19 09:13:54;;;;;;;7.45;1.10;;;14.30;99.90;;;;;;5107323;28;20044;-59
2022/06/19 09:16:39;;;;;;;7.20;0.93;;;14.20;99.90;;;;;;5102999;28;20043;-59
2022/06/19 09:19:15;;;;;;;7.13;2.50;;;14.10;99.90;;;;;;5102902;28;20052;-58
2022/06/19 09:21:51;;;;;;;9.35;1.10;;;14.10;99.90;;;;;;5107827;28;20043;-58
2022/06/19 09:24:44;;;;;;;6.30;1.67;;;14.10;99.90;;;;;;5092380;28;20379;-59
2022/06/19 09:27:14;;;;;;;9.52;2.13;;;14.10;99.90;;;;;;5091106;28;20044;-58
2022/06/19 09:29:52;;;;;;;10.35;1.50;;;14.20;99.90;;;;;;5092483;28;20047;-59
2022/06/19 09:32:25;;;;;;;9.50;1.90;;;14.40;99.90;;;;;;5095344;28;20058;-59
2022/06/19 09:35:11;;;;;;;11.02;1.52;;;14.60;99.90;;;;;;5095244;28;20044;-60
2022/06/19 09:37:51;;;;;;;9.63;1.75;;;14.80;99.90;;;;;;5092357;28;20043;-58
2022/06/19 09:40:26;;;;;;;12.90;1.65;;;14.90;99.90;;;;;;5092098;28;20051;-59
2022/06/19 09:43:00;;;;;;;7.80;1.60;;;15.00;99.90;;;;;;5091727;28;20044;-57
2022/06/19 09:45:39;;;;;;;13.65;2.30;;;15.10;99.90;;;;;;5093591;28;20044;-59
2022/06/19 09:48:26;;;;;;;16.83;2.47;;;15.20;99.90;;;;;;5100575;28;20059;-59
2022/06/19 09:51:04;;;;;;;12.05;2.47;;;15.40;99.90;;;;;;5096567;28;20040;-59
2022/06/19 09:53:40;;;;;;;8.30;1.90;;;15.60;99.90;;;;;;5092100;28;20044;-60
2022/06/19 09:56:39;;;;;;;10.25;1.90;;;15.60;99.90;;;;;;5091676;28;20052;-58
2022/06/19 09:59:21;;;;;;;9.27;1.63;;;15.60;99.90;;;;;;5094803;28;20052;-59
2022/06/19 10:01:56;;;;;;;12.65;2.30;;;15.60;99.90;;;;;;5094058;28;20070;-59
2022/06/19 10:04:36;;;;;;;9.43;1.77;;;15.50;99.90;;;;;;5091867;28;20051;-58
2022/06/19 10:07:10;;;;;;;8.25;1.80;;;15.60;99.90;;;;;;5092273;28;20047;-58
2022/06/19 10:09:50;;;;;;;12.85;1.60;;;15.60;99.90;;;;;;5091739;28;20044;-58
2022/06/19 10:12:29;;;;;;;7.28;2.72;;;15.70;99.90;;;;;;5109728;28;20058;-59
2022/06/19 10:15:03;;;;;;;12.55;1.92;;;15.90;99.90;;;;;;5092859;28;20408;-59
2022/06/19 10:17:44;;;;;;;12.60;2.67;;;16.10;99.90;;;;;;5091614;28;20044;-58
2022/06/19 10:20:20;;;;;;;9.35;2.67;;;16.20;99.90;;;;;;5097784;28;20062;-59
2022/06/19 10:23:07;;;;;;;15.88;1.70;;;16.40;99.90;;;;;;5111792;28;20043;-59
2022/06/19 10:26:02;;;;;;;11.05;2.42;;;16.40;99.90;;;;;;5109821;28;20052;-58
2022/06/19 10:28:50;;;;;;;8.43;1.67;;;16.40;99.90;;;;;;5105923;28;20395;-58
2022/06/19 10:31:51;;;;;;;10.73;2.22;;;16.30;99.90;;;;;;5107068;28;20052;-58
2022/06/19 10:34:31;;;;;;;11.30;1.80;;;16.10;99.90;;;;;;5092503;28;20058;-58
2022/06/19 10:37:10;;;;;;;11.38;3.88;;;16.20;99.90;;;;;;5107509;28;20039;-58
2022/06/19 10:39:45;;;;;;;14.10;2.45;;;16.30;99.90;;;;;;5092800;28;20036;-60
2022/06/19 10:42:38;;;;;;;9.45;1.30;;;16.50;99.90;;;;;;5107041;28;20374;-59
2022/06/19 10:45:38;;;;;;;10.90;1.73;;;16.70;99.90;;;;;;5093297;27;20046;-58
2022/06/19 10:48:35;;;;;;;9.88;1.85;;;16.90;99.90;;;;;;5084062;28;20505;-58
2022/06/19 10:51:38;;;;;;;7.22;1.83;;;17.20;99.90;;;;;;5085283;28;20504;-57
2022/06/19 10:54:18;;;;;;;12.07;2.72;;;17.20;99.90;;;;;;5090308;28;20052;-57
2022/06/19 10:56:49;;;;;;;13.18;1.75;;;17.10;99.90;;;;;;5093404;28;20470;-57
2022/06/19 10:59:17;;;;;;;8.07;1.48;;;17.10;99.90;;;;;;5092568;28;20043;-57
2022/06/19 11:05:03;;;;;;;13.48;2.08;;;16.80;99.90;;;;;;5067190;28;20044;-57
2022/06/19 11:07:31;;;;;;;9.68;1.80;;;16.60;99.90;;;;;;5086782;28;20064;-59
2022/06/19 11:10:21;;;;;;;11.32;1.88;;;16.40;99.90;;;;;;5087138;28;20396;-57
2022/06/19 11:12:56;;;;;;;10.88;2.25;;;16.20;99.90;;;;;;5086724;28;20055;-58
2022/06/19 11:15:26;;;;;;;12.50;1.92;;;16.00;99.90;;;;;;5087246;28;20048;-57
2022/06/19 11:18:22;;;;;;;10.20;2.33;;;15.80;99.90;;;;;;5086735;28;20552;-57
2022/06/19 11:20:55;;;;;;;13.05;1.73;;;15.80;99.90;;;;;;5087077;28;20047;-59
2022/06/19 11:23:37;;;;;;;8.05;1.27;;;15.80;99.90;;;;;;5086960;28;20753;-58
2022/06/19 11:26:09;;;;;;;9.98;1.52;;;15.90;99.90;;;;;;5085632;28;20491;-57
2022/06/19 11:28:43;;;;;;;7.05;1.83;;;16.30;99.90;;;;;;5087084;28;20051;-59
2022/06/19 11:31:17;;;;;;;7.88;1.45;;;16.40;99.90;;;;;;5087070;28;20048;-58
2022/06/19 11:33:47;;;;;;;6.82;1.15;;;16.70;99.90;;;;;;5086660;28;20059;-57
2022/06/19 11:36:33;;;;;;;6.80;1.20;;;17.00;99.90;;;;;;5085345;28;20044;-57
2022/06/19 11:39:21;;;;;;;12.77;2.58;;;17.40;99.90;;;;;;5086252;28;20051;-57
2022/06/19 11:41:49;;;;;;;14.23;2.00;;;17.60;99.90;;;;;;5086849;28;20044;-58
2022/06/19 11:44:19;;;;;;;11.40;2.17;;;17.70;99.90;;;;;;5086783;28;20048;-58
2022/06/19 11:46:53;;;;;;;13.57;1.55;;;17.80;99.90;;;;;;5086417;28;20044;-57
2022/06/19 11:49:27;;;;;;;13.15;1.50;;;18.00;99.90;;;;;;5086130;28;20059;-62
2022/06/19 11:52:06;;;;;;;12.43;2.60;;;18.30;99.90;;;;;;5069484;28;20052;-57
2022/06/19 11:54:47;;;;;;;10.18;1.70;;;18.50;99.90;;;;;;5086617;28;20376;-57
2022/06/19 11:57:31;;;;;;;9.30;1.70;;;18.50;99.90;;;;;;5086160;28;20040;-57
2022/06/19 12:00:05;;;;;;;16.38;2.25;;;18.50;99.90;;;;;;5085226;28;20060;-56
2022/06/19 12:02:40;;;;;;;15.68;2.10;;;18.30;99.90;;;;;;5086245;28;20048;-56
2022/06/19 12:05:31;;;;;;;12.63;2.13;;;18.20;99.90;;;;;;5086791;28;20062;-57
2022/06/19 12:08:19;;;;;;;14.20;2.85;;;18.10;99.90;;;;;;5086378;28;20048;-58
2022/06/19 12:11:01;;;;;;;12.40;2.20;;;18.10;99.90;;;;;;5086182;28;20036;-57
2022/06/19 12:13:32;;;;;;;15.05;2.28;;;18.00;99.90;;;;;;5086692;28;20407;-57
2022/06/19 12:16:21;;;;;;;14.35;1.60;;;18.40;99.90;;;;;;5084996;28;20048;-57
2022/06/19 12:18:50;;;;;;;14.98;2.38;;;18.60;99.90;;;;;;5085879;28;20130;-57
2022/06/19 12:21:23;;;;;;;9.43;1.83;;;18.80;99.90;;;;;;5086453;28;20056;-57
2022/06/19 12:24:14;;;;;;;8.18;1.73;;;18.90;99.90;;;;;;5086620;28;20047;-57
2022/06/19 12:26:48;;;;;;;15.88;1.90;;;18.90;99.90;;;;;;5086543;28;20064;-56
2022/06/19 12:29:19;;;;;;;10.80;1.73;;;18.80;99.90;;;;;;5084840;28;20044;-57
2022/06/19 12:31:51;;;;;;;13.60;3.00;;;18.70;99.90;;;;;;5085615;28;20055;-58
2022/06/19 12:34:34;;;;;;;15.30;1.97;;;18.60;99.90;;;;;;5086039;28;20602;-58
2022/06/19 12:37:02;;;;;;;15.40;3.70;;;18.50;99.90;;;;;;5084647;28;20058;-58
2022/06/19 12:39:31;;;;;;;12.50;1.73;;;18.40;99.90;;;;;;5085577;28;20059;-58
2022/06/19 12:42:16;;;;;;;19.80;3.20;;;18.40;99.90;;;;;;5086386;28;20047;-57
2022/06/19 12:45:13;;;;;;;10.35;1.98;;;18.40;99.90;;;;;;5086063;28;20056;-57
2022/06/19 12:48:04;;;;;;;16.00;1.90;;;18.70;99.90;;;;;;5074017;28;20052;-58
2022/06/19 12:51:01;;;;;;;11.45;1.65;;;19.20;99.90;;;;;;5088196;28;20055;-58
2022/06/19 12:53:59;;;;;;;11.77;2.08;;;19.70;99.90;;;;;;5088936;28;20056;-58
2022/06/19 12:56:52;;;;;;;11.15;2.28;;;20.30;99.90;;;;;;5090101;28;20399;-58
2022/06/19 12:59:51;;;;;;;13.02;2.33;;;20.50;98.80;;;;;;5088478;28;20051;-58
2022/06/19 13:02:38;;;;;;;9.63;1.83;;;20.60;99.50;;;;;;5073692;28;20052;-58
2022/06/19 13:05:18;;;;;;;10.20;2.00;;;20.90;99.90;;;;;;5093126;28;20479;-59
2022/06/19 13:08:09;;;;;;;13.20;1.80;;;21.20;98.70;;;;;;5092770;28;20044;-60
2022/06/19 13:10:40;;;;;;;12.68;2.17;;;21.20;97.30;;;;;;5093373;28;20055;-59
2022/06/19 13:13:56;;;;;;;18.73;2.83;;;21.10;96.70;;;;;;5092721;28;20067;-59
2022/06/19 13:16:30;;;;;;;8.15;1.95;;;20.80;96.80;;;;;;5092810;28;20484;-59
2022/06/19 13:19:20;;;;;;;13.65;2.03;;;20.70;97.30;;;;;;5091507;28;20055;-59
2022/06/19 13:22:17;;;;;;;12.02;2.28;;;20.40;96.00;;;;;;5090953;28;20048;-58
2022/06/19 13:25:03;;;;;;;20.15;3.35;;;20.00;96.10;;;;;;5090078;28;20044;-58
2022/06/19 13:27:32;;;;;;;13.02;2.10;;;19.60;97.10;;;;;;5088928;28;20451;-58
2022/06/19 13:30:29;;;;;;;9.82;1.92;;;19.30;97.30;;;;;;5090623;28;20044;-58
2022/06/19 13:33:40;;;;;;;14.30;2.22;;;19.00;97.40;;;;;;5090850;28;20036;-58
2022/06/19 13:36:40;;;;;;;10.75;1.88;;;18.60;98.00;;;;;;5092340;28;20040;-59